Hangu, China
Current Conditions -  °F | °C
As of 10:00 AM on Monday 22 Dec 2014 (Local Time) from ZBTJ Reporting Station
Haze Haze  
Wind Chill: 30°   Ceiling: Unl
Heat Index: 34°   Visibility: 1.5mi
Dew Point:   Wind: 4mph
Humidity: 35%   Direction: 240°WSW
Pressure: 30.3"   Gusts: NA
Location:  39.23°N, 117.78°E
Report Text: ZBTJ 220200Z 24002MPS 2500 HZ NSC 01/M13 Q1026 BECMG TL03003500
Loading
Personal Weather Stations






























Interactive Weather Map New forecast layout! Learn more

10-Day Weather Forecast

Advertisements
Track Severe Weather on mobile